createdAt,value
2022-10-11T00:02:52.251Z,17.45
2022-10-11T00:07:57.337Z,16.55
2022-10-11T00:13:01.148Z,30.05
2022-10-11T00:18:05.581Z,16.85
2022-10-11T00:23:10.322Z,19.85
2022-10-11T00:28:13.665Z,12.07
2022-10-11T00:33:17.019Z,8.68
2022-10-11T00:38:21.810Z,9.88
2022-10-11T00:43:26.801Z,11.23
2022-10-11T00:48:37.532Z,7.60
2022-10-11T00:53:43.021Z,6.80
2022-10-11T00:58:46.777Z,6.85
2022-10-11T01:03:50.122Z,8.05
2022-10-11T01:08:55.142Z,8.23
2022-10-11T01:14:20.859Z,5.30
2022-10-11T01:19:56.038Z,7.47
2022-10-11T01:25:15.941Z,7.25
2022-10-11T01:30:23.238Z,8.40
2022-10-11T01:35:31.726Z,10.65
2022-10-11T01:40:38.442Z,6.90
2022-10-11T01:45:44.627Z,5.50
2022-10-11T01:50:49.757Z,13.07
2022-10-11T01:55:58.432Z,10.23
2022-10-11T02:01:13.112Z,11.82
2022-10-11T02:06:25.786Z,7.10
2022-10-11T02:12:03.162Z,10.75
2022-10-11T02:17:12.166Z,5.68
2022-10-11T02:22:20.553Z,7.63
2022-10-11T02:27:28.713Z,4.97
2022-10-11T02:32:35.157Z,7.38
2022-10-11T02:37:48.051Z,6.70
2022-10-11T02:42:58.781Z,10.80
2022-10-11T02:48:04.529Z,9.15
2022-10-11T02:53:08.094Z,5.95
2022-10-11T02:58:11.377Z,8.30
2022-10-11T03:09:42.493Z,9.20
2022-10-11T03:14:45.856Z,10.68
2022-10-11T03:19:49.236Z,9.35
2022-10-11T03:24:53.926Z,12.93
2022-10-11T03:29:57.860Z,6.05
2022-10-11T03:35:01.436Z,5.78
2022-10-11T03:40:09.563Z,12.05
2022-10-11T03:45:13.339Z,8.52
2022-10-11T03:50:16.655Z,9.02
2022-10-11T03:55:21.456Z,8.18
2022-10-11T04:00:24.786Z,9.73
2022-10-11T04:05:28.090Z,12.02
2022-10-11T04:10:32.794Z,8.55
2022-10-11T04:15:37.836Z,9.25
2022-10-11T04:20:41.231Z,9.27
2022-10-11T04:25:48.290Z,9.70
2022-10-11T04:30:52.199Z,16.42
2022-10-11T04:35:56.357Z,14.45
2022-10-11T04:41:08.603Z,14.55
2022-10-11T04:46:12.148Z,8.13
2022-10-11T04:51:18.446Z,12.82
2022-10-11T04:56:23.344Z,11.23
2022-10-11T05:01:26.685Z,9.93
2022-10-11T05:06:30.086Z,15.85
2022-10-11T05:11:34.846Z,11.70
2022-10-11T05:16:38.188Z,9.55
2022-10-11T05:21:41.536Z,13.63
2022-10-11T05:26:46.358Z,10.10
2022-10-11T05:31:49.671Z,9.88
2022-10-11T05:36:53.001Z,12.10
2022-10-11T05:41:58.133Z,19.67
2022-10-11T05:47:04.332Z,14.18
2022-10-11T05:52:09.240Z,14.35
2022-10-11T05:57:14.282Z,16.83
2022-10-11T06:02:17.599Z,22.02
2022-10-11T06:07:20.978Z,30.15
2022-10-11T06:12:25.751Z,21.25
2022-10-11T06:17:32.153Z,24.33
2022-10-11T06:22:35.565Z,14.85
2022-10-11T06:27:40.272Z,24.45
2022-10-11T06:32:43.591Z,31.65
2022-10-11T06:37:46.968Z,29.73
2022-10-11T06:42:51.629Z,26.48
2022-10-11T06:47:55.057Z,24.30
2022-10-11T06:52:58.410Z,21.33
2022-10-11T06:58:03.294Z,17.88
2022-10-11T07:03:06.699Z,22.60
2022-10-11T07:08:10.016Z,18.73
2022-10-11T07:13:17.196Z,17.95
2022-10-11T07:18:20.783Z,23.15
2022-10-11T07:23:24.438Z,24.45
2022-10-11T07:28:30.634Z,33.75
2022-10-11T07:33:34.986Z,21.20
2022-10-11T07:38:40.653Z,25.00
2022-10-11T07:43:47.808Z,24.38
2022-10-11T07:48:51.209Z,21.90
2022-10-11T07:53:56.638Z,19.38
2022-10-11T07:59:03.609Z,16.20
2022-10-11T08:04:07.122Z,15.68
2022-10-11T08:09:10.650Z,21.48
2022-10-11T08:14:15.609Z,16.13
2022-10-11T08:19:19.390Z,21.45
2022-10-11T08:24:22.782Z,18.27
2022-10-11T08:29:27.534Z,26.45
2022-10-11T08:34:31.390Z,15.50
2022-10-11T08:39:35.283Z,15.48
2022-10-11T08:45:09.466Z,17.63
2022-10-11T08:50:09.566Z,19.40
2022-10-11T08:55:19.315Z,23.48
2022-10-11T09:00:25.408Z,22.38
2022-10-11T09:05:35.327Z,22.65
2022-10-11T09:10:56.429Z,16.30
2022-10-11T09:16:11.478Z,23.90
2022-10-11T09:21:26.100Z,24.98
2022-10-11T09:26:34.552Z,25.90
2022-10-11T09:31:39.331Z,22.75
2022-10-11T09:36:48.109Z,25.23
2022-10-11T09:41:57.881Z,30.45
2022-10-11T09:52:12.027Z,20.25
2022-10-11T09:57:24.981Z,15.27
2022-10-11T10:02:30.600Z,18.45
2022-10-11T10:07:36.404Z,17.73
2022-10-11T10:12:39.841Z,13.13
2022-10-11T10:17:51.344Z,13.43
2022-10-11T10:22:55.101Z,13.70
2022-10-11T10:28:00.478Z,25.98
2022-10-11T10:33:08.835Z,21.08
2022-10-11T10:38:19.852Z,12.07
2022-10-11T10:43:28.816Z,12.32
2022-10-11T10:49:12.035Z,21.27
2022-10-11T10:54:15.712Z,18.35
2022-10-11T10:59:42.755Z,12.63
2022-10-11T11:04:53.826Z,10.63
2022-10-11T11:10:02.521Z,13.55
2022-10-11T11:15:13.324Z,17.08
2022-10-11T11:20:32.883Z,12.88
2022-10-11T11:25:45.145Z,12.63
2022-10-11T11:30:58.442Z,12.40
2022-10-11T11:36:12.053Z,14.40
2022-10-11T11:41:18.770Z,12.73
2022-10-11T11:46:44.354Z,22.02
2022-10-11T11:51:52.826Z,14.13
2022-10-11T11:57:00.997Z,6.72
2022-10-11T12:02:31.159Z,13.27
2022-10-11T12:07:49.959Z,13.48
2022-10-11T12:13:07.197Z,7.18
2022-10-11T12:18:18.030Z,7.90
2022-10-11T12:23:50.549Z,7.18
2022-10-11T12:29:28.675Z,7.30
2022-10-11T12:34:35.620Z,5.53
2022-10-11T12:39:51.759Z,6.20
2022-10-11T12:45:32.264Z,6.82
2022-10-11T12:50:49.573Z,29.42
2022-10-11T12:56:02.278Z,7.97
2022-10-11T13:01:21.462Z,8.95
2022-10-11T13:06:28.219Z,6.23
2022-10-11T13:11:36.036Z,7.13
2022-10-11T13:16:56.736Z,7.93
2022-10-11T13:22:02.505Z,6.45
2022-10-11T13:27:09.911Z,8.15
2022-10-11T13:32:16.800Z,6.55
2022-10-11T13:37:22.599Z,6.40
2022-10-11T13:42:32.027Z,8.98
2022-10-11T13:47:36.486Z,5.20
2022-10-11T13:52:54.212Z,8.27
2022-10-11T13:58:00.985Z,8.88
2022-10-11T14:03:08.993Z,4.88
2022-10-11T14:08:26.341Z,5.13
2022-10-11T14:13:34.590Z,8.13
2022-10-11T14:18:49.039Z,7.05
2022-10-11T14:23:58.534Z,6.38
2022-10-11T14:29:06.923Z,12.15
2022-10-11T14:34:20.376Z,18.33
2022-10-11T14:39:25.745Z,17.05
2022-10-11T14:44:30.471Z,33.90
2022-10-11T14:49:35.619Z,20.75
2022-10-11T14:54:38.999Z,8.23
2022-10-11T14:59:46.542Z,8.25
2022-10-11T15:04:49.932Z,11.70
2022-10-11T15:09:53.301Z,7.60
2022-10-11T15:14:58.282Z,6.55
2022-10-11T15:20:01.726Z,21.27
2022-10-11T15:25:05.894Z,31.75
2022-10-11T15:30:15.912Z,16.98
2022-10-11T15:35:20.545Z,8.40
2022-10-11T15:40:26.663Z,11.27
2022-10-11T15:45:32.305Z,13.93
2022-10-11T15:50:37.923Z,10.38
2022-10-11T15:55:44.743Z,12.35
2022-10-11T16:00:51.518Z,9.98
2022-10-11T16:05:55.732Z,16.10
2022-10-11T16:11:00.071Z,11.45
2022-10-11T16:16:07.515Z,8.77
2022-10-11T16:21:14.443Z,20.25
2022-10-11T16:26:19.119Z,9.65
2022-10-11T16:31:23.910Z,12.07
2022-10-11T16:36:35.129Z,15.27
2022-10-11T16:41:38.982Z,14.27
2022-10-11T16:46:48.203Z,41.75
2022-10-11T16:51:52.884Z,19.38
2022-10-11T16:56:56.311Z,13.68
2022-10-11T17:02:01.140Z,18.38
2022-10-11T17:07:04.582Z,17.05
2022-10-11T17:12:09.145Z,21.30
2022-10-11T17:17:14.450Z,24.58
2022-10-11T17:22:20.124Z,27.13
2022-10-11T17:27:23.527Z,34.42
2022-10-11T17:32:43.767Z,32.85
2022-10-11T17:37:47.284Z,33.53
2022-10-11T17:42:50.680Z,26.08
2022-10-11T17:47:55.647Z,38.75
2022-10-11T17:52:59.172Z,25.27
2022-10-11T17:58:03.404Z,26.15
2022-10-11T18:03:08.473Z,24.95
2022-10-11T18:08:11.894Z,34.20
2022-10-11T18:13:15.500Z,35.78
2022-10-11T18:18:20.865Z,28.30
2022-10-11T18:23:24.225Z,39.22
2022-10-11T18:28:27.671Z,37.58
2022-10-11T18:33:32.455Z,44.83
2022-10-11T18:38:38.113Z,39.15
2022-10-11T18:43:42.357Z,31.48
2022-10-11T18:48:49.742Z,31.40
2022-10-11T18:53:54.509Z,31.38
2022-10-11T18:58:59.181Z,39.00
2022-10-11T19:04:05.529Z,42.25
2022-10-11T19:09:11.772Z,39.15
2022-10-11T19:14:17.289Z,38.78
2022-10-11T19:19:23.949Z,41.97
2022-10-11T19:24:29.169Z,38.75
2022-10-11T19:29:34.041Z,40.10
2022-10-11T19:34:38.803Z,42.63
2022-10-11T19:39:42.175Z,46.05
2022-10-11T19:44:45.547Z,43.28
2022-10-11T19:49:50.281Z,45.67
2022-10-11T19:54:53.668Z,71.95
2022-10-11T20:00:03.367Z,63.05
2022-10-11T20:05:09.858Z,61.55
2022-10-11T20:10:32.554Z,84.18
2022-10-11T20:15:45.535Z,64.57
2022-10-11T20:20:55.281Z,83.32
2022-10-11T20:26:00.048Z,179.50
2022-10-11T20:31:06.627Z,80.13
2022-10-11T20:36:13.406Z,88.00
2022-10-11T20:41:19.097Z,82.97
2022-10-11T20:46:24.562Z,62.83
2022-10-11T20:51:29.809Z,69.13
2022-10-11T20:56:33.970Z,55.55
2022-10-11T21:01:39.628Z,53.30
2022-10-11T21:06:44.650Z,52.50
2022-10-11T21:11:47.988Z,45.65
2022-10-11T21:16:51.533Z,36.50
2022-10-11T21:21:56.375Z,34.10
2022-10-11T21:27:03.003Z,39.28
2022-10-11T21:32:08.866Z,280.50
2022-10-11T21:37:16.008Z,86.75
2022-10-11T21:42:19.459Z,51.45
2022-10-11T21:47:22.917Z,36.17
2022-10-11T21:52:27.688Z,39.30
2022-10-11T21:57:31.096Z,34.53
2022-10-11T22:02:34.731Z,34.67
2022-10-11T22:07:39.707Z,38.03
2022-10-11T22:12:43.057Z,35.28
2022-10-11T22:17:47.106Z,31.73
2022-10-11T22:22:52.079Z,31.80
2022-10-11T22:27:55.503Z,29.63
2022-10-11T22:32:58.854Z,25.90
2022-10-11T22:38:05.542Z,24.52
2022-10-11T22:43:08.877Z,27.48
2022-10-11T22:48:13.218Z,22.38
2022-10-11T22:53:18.466Z,30.27
2022-10-11T22:58:21.870Z,22.25
2022-10-11T23:03:25.282Z,18.90
2022-10-11T23:08:29.943Z,23.23
2022-10-11T23:13:33.409Z,21.90
2022-10-11T23:18:37.220Z,24.40
2022-10-11T23:23:42.124Z,16.05
2022-10-11T23:28:45.648Z,14.68
2022-10-11T23:33:49.480Z,16.90
2022-10-11T23:38:55.541Z,14.18
2022-10-11T23:43:59.249Z,17.70
2022-10-11T23:49:02.782Z,18.45
2022-10-11T23:54:07.718Z,20.67
2022-10-11T23:59:11.105Z,23.02
